Time;durP1;ratioP1;P1;durP2;ratioP2;P2;SDS_P1;SDS_P2;PMS_P1;PMS_P2;Temp;Humidity;BMP_temperature;BMP_pressure;BME280_temperature;BME280_humidity;BME280_pressure;Samples;Min_cycle;Max_cycle;Signal;HPM_P1;HPM_P2
2023/05/02 00:00:13;;;;;;;16.83;8.77;;;;;;;10.92;80.24;101890.50;5069446;28;20020;-77
2023/05/02 00:02:39;;;;;;;15.88;8.95;;;;;;;10.88;79.99;101894.88;5059504;28;20091;-77
2023/05/02 00:05:05;;;;;;;14.27;8.45;;;;;;;10.87;80.31;101894.88;5063012;28;20036;-77
2023/05/02 00:07:31;;;;;;;14.50;8.40;;;;;;;10.85;79.94;101901.84;5067729;28;20033;-78
2023/05/02 00:09:57;;;;;;;14.65;8.20;;;;;;;10.81;80.88;101902.75;5065374;28;20048;-77
2023/05/02 00:12:22;;;;;;;16.58;9.00;;;;;;;10.77;80.79;101904.53;5058532;28;20040;-77
2023/05/02 00:14:47;;;;;;;16.83;8.88;;;;;;;10.76;80.61;101910.59;5072301;28;20389;-77
2023/05/02 00:17:19;;;;;;;15.80;9.30;;;;;;;10.72;80.91;101909.78;5063717;28;20025;-77
2023/05/02 00:19:44;;;;;;;16.13;8.50;;;;;;;10.71;81.13;101908.06;5063605;28;20118;-77
2023/05/02 00:22:10;;;;;;;14.95;8.30;;;;;;;10.68;80.68;101915.88;5071528;28;20456;-77
2023/05/02 00:24:35;;;;;;;15.93;8.55;;;;;;;10.66;81.36;101914.19;5068225;28;20237;-77
2023/05/02 00:27:00;;;;;;;13.45;7.32;;;;;;;10.65;80.89;101912.47;5071833;28;20051;-77
2023/05/02 00:29:26;;;;;;;14.77;8.38;;;;;;;10.63;81.51;101918.53;5069820;28;20024;-77
2023/05/02 00:31:51;;;;;;;13.25;7.22;;;;;;;10.63;80.75;101925.47;5062191;28;20056;-77
2023/05/02 00:34:16;;;;;;;14.27;7.53;;;;;;;10.61;81.10;101924.59;5069165;28;20024;-77
2023/05/02 00:36:42;;;;;;;13.93;8.07;;;;;;;10.58;80.39;101922.06;5054556;28;20393;-78
2023/05/02 00:39:07;;;;;;;13.90;7.90;;;;;;;10.54;80.55;101921.19;5060563;28;20393;-77
2023/05/02 00:41:32;;;;;;;16.02;7.88;;;;;;;10.55;80.81;101916.88;5058307;28;20017;-77
2023/05/02 00:43:58;;;;;;;15.57;8.32;;;;;;;10.52;81.19;101915.13;5057002;28;20021;-77
2023/05/02 00:46:23;;;;;;;15.55;8.30;;;;;;;10.50;81.36;101919.53;5068568;28;20024;-77
2023/05/02 00:48:49;;;;;;;16.40;8.80;;;;;;;10.50;81.04;101918.63;5065643;28;20027;-77
2023/05/02 00:51:14;;;;;;;14.88;7.88;;;;;;;10.50;81.79;101924.72;5063769;28;20366;-77
2023/05/02 00:53:40;;;;;;;16.17;7.93;;;;;;;10.52;81.67;101932.50;5065167;28;20024;-77
2023/05/02 00:56:08;;;;;;;16.02;9.07;;;;;;;10.52;80.77;101922.09;5055596;28;20086;-78
2023/05/02 00:58:34;;;;;;;17.25;8.95;;;;;;;10.46;80.76;101925.63;5062204;28;20048;-77
2023/05/02 01:01:05;;;;;;;14.25;8.32;;;;;;;10.45;81.53;101926.50;5072473;28;20024;-77
2023/05/02 01:04:07;;;;;;;16.60;9.38;;;;;;;10.43;81.23;101923.88;5067946;28;20055;-77
2023/05/02 01:06:42;;;;;;;15.77;8.55;;;;;;;10.43;81.29;101925.63;5064837;28;20083;-77
2023/05/02 01:09:19;;;;;;;18.02;9.45;;;;;;;10.42;82.17;101929.94;5052469;28;20039;-77
2023/05/02 01:12:02;;;;;;;16.55;8.25;;;;;;;10.43;81.35;101929.09;5069513;28;20075;-77
2023/05/02 01:14:30;;;;;;;15.15;8.27;;;;;;;10.45;81.59;101927.34;5059424;28;20115;-77
2023/05/02 01:16:57;;;;;;;14.25;8.38;;;;;;;10.46;81.28;101928.22;5067261;28;20059;-78
2023/05/02 01:19:32;;;;;;;15.68;8.05;;;;;;;10.40;81.13;101923.03;5064060;28;20033;-77
2023/05/02 01:22:00;;;;;;;15.52;7.93;;;;;;;10.36;81.06;101935.19;5053748;28;20545;-77
2023/05/02 01:24:31;;;;;;;12.90;6.80;;;;;;;10.35;80.37;101924.78;5056347;28;20021;-77
2023/05/02 01:27:34;;;;;;;12.25;6.20;;;;;;;10.33;80.59;101937.81;5069406;28;20025;-77
2023/05/02 01:30:02;;;;;;;11.15;6.28;;;;;;;10.29;81.09;101931.78;5052697;28;20130;-77
2023/05/02 01:32:30;;;;;;;11.90;6.20;;;;;;;10.28;81.15;101942.16;5059982;28;20028;-77
2023/05/02 01:34:57;;;;;;;12.32;6.65;;;;;;;10.24;81.36;101937.88;5066965;28;20037;-77
2023/05/02 01:37:24;;;;;;;16.00;7.18;;;;;;;10.21;81.70;101937.91;5054156;28;20025;-77
2023/05/02 01:39:53;;;;;;;11.82;6.72;;;;;;;10.19;81.71;101935.28;5063025;28;20020;-78
2023/05/02 01:42:19;;;;;;;13.05;6.80;;;;;;;10.17;81.55;101937.91;5057586;28;20104;-77
2023/05/02 01:44:46;;;;;;;13.30;7.00;;;;;;;10.17;81.83;101932.72;5056499;28;20021;-77
2023/05/02 01:47:12;;;;;;;11.63;6.00;;;;;;;10.16;81.67;101941.38;5066081;28;20370;-78
2023/05/02 01:49:41;;;;;;;11.52;6.30;;;;;;;10.17;81.75;101937.91;5052691;28;20064;-77
2023/05/02 01:52:10;;;;;;;9.73;6.00;;;;;;;10.21;81.83;101945.69;5054582;28;20074;-77
2023/05/02 01:54:36;;;;;;;12.15;6.10;;;;;;;10.21;81.50;101945.69;5063793;28;20032;-78
2023/05/02 01:57:04;;;;;;;10.75;5.85;;;;;;;10.21;81.71;101949.16;5060225;28;20396;-78
2023/05/02 01:59:32;;;;;;;12.07;6.38;;;;;;;10.21;81.49;101949.16;5054929;28;20020;-78
2023/05/02 02:02:00;;;;;;;13.25;6.45;;;;;;;10.21;81.83;101950.91;5056888;28;20517;-78
2023/05/02 02:04:27;;;;;;;12.18;6.60;;;;;;;10.23;81.98;101962.16;5058348;28;20101;-77
2023/05/02 02:07:02;;;;;;;12.82;6.32;;;;;;;10.24;82.05;101963.91;5059695;28;20170;-77
2023/05/02 02:09:29;;;;;;;10.85;6.00;;;;;;;10.26;81.47;101964.72;5058313;28;20101;-78
2023/05/02 02:12:09;;;;;;;11.40;6.53;;;;;;;10.27;81.67;101971.66;5061042;28;20418;-77
2023/05/02 02:14:41;;;;;;;11.07;6.38;;;;;;;10.27;81.90;101964.72;5055013;28;20029;-77
2023/05/02 02:17:23;;;;;;;12.65;6.70;;;;;;;10.25;81.92;101958.66;5068096;28;20033;-77
2023/05/02 02:19:53;;;;;;;13.70;7.25;;;;;;;10.22;82.71;101968.25;5066249;28;20036;-77
2023/05/02 02:22:20;;;;;;;12.05;7.47;;;;;;;10.18;82.80;101960.44;5058411;28;20024;-77
2023/05/02 02:24:46;;;;;;;16.58;8.02;;;;;;;10.22;82.35;101970.84;5052210;28;20025;-78
2023/05/02 02:27:12;;;;;;;14.35;8.23;;;;;;;10.20;82.97;101970.81;5058545;28;20030;-77
2023/05/02 02:29:38;;;;;;;13.57;8.13;;;;;;;10.22;82.67;101971.69;5060892;28;20028;-78
2023/05/02 02:32:03;;;;;;;13.15;7.75;;;;;;;10.22;82.66;101973.44;5057073;28;20024;-78
2023/05/02 02:34:29;;;;;;;15.20;8.45;;;;;;;10.21;82.82;101976.91;5070573;28;20040;-77
2023/05/02 02:36:59;;;;;;;14.68;8.15;;;;;;;10.22;83.05;101981.25;5051901;28;20033;-78
2023/05/02 02:39:45;;;;;;;16.35;8.70;;;;;;;10.20;82.99;101977.78;5055356;28;20024;-77
2023/05/02 02:42:17;;;;;;;13.85;7.75;;;;;;;10.21;83.21;101974.31;5066163;28;20087;-77
2023/05/02 02:45:00;;;;;;;13.80;8.23;;;;;;;10.23;83.01;101975.16;5064787;28;20053;-77
2023/05/02 02:47:35;;;;;;;14.73;8.35;;;;;;;10.21;83.84;101979.50;5059194;28;20024;-77
2023/05/02 02:50:06;;;;;;;14.63;8.30;;;;;;;10.21;83.61;101982.97;5057023;28;20025;-77
2023/05/02 02:52:35;;;;;;;16.10;8.75;;;;;;;10.22;83.52;101976.88;5057598;28;20477;-78
2023/05/02 02:55:16;;;;;;;13.13;8.38;;;;;;;10.23;83.35;101981.22;5062962;28;20033;-77
2023/05/02 02:57:56;;;;;;;13.43;8.13;;;;;;;10.24;83.67;101984.69;5062356;28;20024;-77
2023/05/02 03:00:26;;;;;;;12.13;7.70;;;;;;;10.22;84.06;101991.66;5063667;28;20412;-77
2023/05/02 03:02:53;;;;;;;14.13;7.88;;;;;;;10.20;84.29;101998.59;5061820;28;20025;-77
2023/05/02 03:05:21;;;;;;;13.38;7.68;;;;;;;10.20;84.53;101999.44;5069342;28;20119;-77
2023/05/02 03:07:46;;;;;;;12.77;7.45;;;;;;;10.16;84.83;102003.78;5067700;28;20107;-77
2023/05/02 03:10:11;;;;;;;14.00;7.70;;;;;;;10.18;84.43;102008.97;5060636;28;20136;-77
2023/05/02 03:12:38;;;;;;;13.88;7.28;;;;;;;10.17;85.07;102009.84;5056687;28;20490;-77
2023/05/02 03:15:29;;;;;;;12.05;7.53;;;;;;;10.16;84.81;102014.19;5051630;28;20397;-78
2023/05/02 03:17:54;;;;;;;14.00;7.75;;;;;;;10.14;84.99;102005.53;5062303;28;20032;-77
2023/05/02 03:20:19;;;;;;;12.27;6.88;;;;;;;10.16;84.90;102018.56;5059685;28;20503;-78
2023/05/02 03:22:44;;;;;;;12.25;7.25;;;;;;;10.17;85.29;102025.44;5064231;28;20126;-77
2023/05/02 03:25:10;;;;;;;11.98;7.43;;;;;;;10.17;85.47;102022.84;5068660;28;20024;-77
2023/05/02 03:27:35;;;;;;;12.63;7.38;;;;;;;10.17;85.75;102028.06;5069360;28;20488;-77
2023/05/02 03:30:01;;;;;;;9.60;6.15;;;;;;;10.17;86.10;102030.66;5060282;28;20070;-77
2023/05/02 03:32:26;;;;;;;11.95;6.72;;;;;;;10.16;86.64;102037.59;5053758;28;20473;-77
2023/05/02 03:34:53;;;;;;;11.07;6.85;;;;;;;10.14;86.91;102030.69;5052262;28;20021;-77
2023/05/02 03:37:18;;;;;;;12.50;6.97;;;;;;;10.12;86.68;102038.47;5068689;28;20027;-77
2023/05/02 03:39:43;;;;;;;12.80;6.95;;;;;;;10.13;87.15;102044.56;5065980;28;20025;-77
2023/05/02 03:42:09;;;;;;;10.82;5.88;;;;;;;10.10;86.54;102048.03;5059410;28;20024;-77
2023/05/02 03:44:34;;;;;;;8.55;4.45;;;;;;;10.06;86.17;102041.13;5074062;28;20393;-77
2023/05/02 03:46:59;;;;;;;10.23;4.07;;;;;;;10.00;86.27;102043.75;5057897;28;20503;-77
2023/05/02 03:49:25;;;;;;;9.27;3.70;;;;;;;9.98;86.62;102048.09;5056008;28;20123;-77
2023/05/02 03:51:50;;;;;;;7.72;3.70;;;;;;;9.95;86.62;102046.38;5065446;28;20129;-77
2023/05/02 03:54:15;;;;;;;7.45;3.50;;;;;;;9.94;86.76;102051.56;5070249;28;20012;-77
2023/05/02 03:56:42;;;;;;;7.97;3.50;;;;;;;9.90;86.72;102047.25;5058188;28;20381;-77
2023/05/02 03:59:08;;;;;;;6.93;3.17;;;;;;;9.90;86.71;102057.66;5057506;28;20031;-77
2023/05/02 04:01:33;;;;;;;5.93;2.92;;;;;;;9.87;86.74;102058.50;5055456;28;20037;-77
2023/05/02 04:03:58;;;;;;;7.10;2.90;;;;;;;9.84;87.11;102056.78;5055971;28;20032;-77
2023/05/02 04:06:23;;;;;;;11.48;3.50;;;;;;;9.84;86.75;102067.19;5055097;28;20429;-77
2023/05/02 04:08:49;;;;;;;7.43;2.92;;;;;;;9.84;86.93;102071.50;5055952;28;20315;-77
2023/05/02 04:11:14;;;;;;;5.75;2.85;;;;;;;9.83;87.03;102070.66;5060479;28;20040;-77
2023/05/02 04:13:39;;;;;;;9.13;3.05;;;;;;;9.83;87.04;102080.19;5070489;28;20430;-77
2023/05/02 04:16:05;;;;;;;5.47;2.55;;;;;;;9.82;86.24;102081.94;5067374;28;20503;-77
2023/05/02 04:18:30;;;;;;;6.28;2.83;;;;;;;9.78;86.23;102088.00;5054952;28;20024;-77
2023/05/02 04:20:55;;;;;;;6.28;2.65;;;;;;;9.75;85.70;102080.19;5058994;28;20437;-77
2023/05/02 04:23:21;;;;;;;3.88;2.50;;;;;;;9.73;85.92;102087.16;5069101;28;20031;-77
2023/05/02 04:25:51;;;;;;;8.00;2.40;;;;;;;9.69;84.73;102090.63;5056665;28;20025;-77
2023/05/02 04:28:16;;;;;;;4.78;2.45;;;;;;;9.68;83.67;102099.28;5053588;28;20036;-77
2023/05/02 04:30:41;;;;;;;5.40;2.00;;;;;;;9.63;83.17;102098.41;5062130;28;20381;-77
2023/05/02 04:33:06;;;;;;;3.63;1.60;;;;;;;9.57;81.94;102102.75;5066642;28;20024;-77
2023/05/02 04:35:32;;;;;;;3.42;1.55;;;;;;;9.55;81.97;102109.69;5059593;28;20482;-77
2023/05/02 04:37:57;;;;;;;4.72;1.40;;;;;;;9.54;81.64;102118.34;5058155;28;20020;-77
2023/05/02 04:40:22;;;;;;;3.20;1.40;;;;;;;9.54;82.09;102118.34;5061311;28;20052;-76
2023/05/02 04:42:47;;;;;;;2.33;1.40;;;;;;;9.53;81.30;102129.63;5054636;28;20032;-76
2023/05/02 04:45:13;;;;;;;2.85;1.40;;;;;;;9.51;80.90;102133.06;5063574;28;20013;-76
2023/05/02 04:47:38;;;;;;;3.05;1.52;;;;;;;9.49;80.43;102130.47;5054258;28;20506;-76
2023/05/02 04:50:04;;;;;;;2.75;1.40;;;;;;;9.47;80.00;102133.94;5065887;28;20021;-76
2023/05/02 04:52:30;;;;;;;3.50;1.25;;;;;;;9.43;79.58;102138.25;5065324;28;20020;-76
2023/05/02 04:54:55;;;;;;;3.20;1.17;;;;;;;9.41;79.41;102142.59;5070730;28;20027;-76
2023/05/02 04:57:21;;;;;;;4.10;1.40;;;;;;;9.38;78.97;102145.22;5065325;28;20025;-76
2023/05/02 04:59:46;;;;;;;4.35;1.35;;;;;;;9.40;79.33;102146.03;5053869;28;20082;-76
2023/05/02 05:02:11;;;;;;;5.32;1.15;;;;;;;9.41;79.33;102150.38;5060242;28;20513;-76
2023/05/02 05:04:37;;;;;;;3.78;1.38;;;;;;;9.42;78.89;102159.91;5056698;28;20017;-76
2023/05/02 05:07:03;;;;;;;4.05;1.20;;;;;;;9.44;78.73;102168.56;5066044;28;20028;-76
2023/05/02 05:09:28;;;;;;;5.68;1.40;;;;;;;9.44;79.47;102165.97;5061820;28;20048;-76
2023/05/02 05:11:53;;;;;;;3.72;1.20;;;;;;;9.46;79.60;102164.25;5068025;28;20993;-76
2023/05/02 05:14:19;;;;;;;3.78;1.40;;;;;;;9.49;79.42;102168.56;5061391;28;20027;-76
2023/05/02 05:16:44;;;;;;;4.07;1.40;;;;;;;9.51;77.93;102178.09;5061394;28;20020;-76
2023/05/02 05:19:10;;;;;;;5.45;1.30;;;;;;;9.50;78.13;102176.38;5060284;28;20078;-76
2023/05/02 05:21:35;;;;;;;7.85;1.70;;;;;;;9.48;78.21;102180.69;5056878;28;20028;-76
2023/05/02 05:24:01;;;;;;;2.85;1.10;;;;;;;9.49;77.80;102176.34;5065135;28;20078;-76
2023/05/02 05:26:26;;;;;;;3.25;0.93;;;;;;;9.50;77.28;102188.47;5059815;28;20027;-76
2023/05/02 05:28:52;;;;;;;2.72;1.08;;;;;;;9.51;76.67;102187.63;5063209;28;20429;-76
2023/05/02 05:31:17;;;;;;;5.03;1.30;;;;;;;9.49;77.45;102187.63;5063263;28;20029;-76
2023/05/02 05:33:42;;;;;;;5.50;1.40;;;;;;;9.48;77.19;102191.09;5056932;28;20032;-76
2023/05/02 05:36:10;;;;;;;10.00;1.52;;;;;;;9.44;77.03;102204.09;5052051;28;20031;-76
2023/05/02 05:38:35;;;;;;;4.90;1.40;;;;;;;9.46;76.82;102210.16;5056473;28;20140;-76
2023/05/02 05:41:01;;;;;;;6.00;1.55;;;;;;;9.45;76.73;102200.63;5057622;28;20103;-76
2023/05/02 05:43:27;;;;;;;6.25;1.10;;;;;;;9.47;76.87;102202.34;5059079;28;20012;-76
2023/05/02 05:45:53;;;;;;;4.65;1.20;;;;;;;9.48;76.65;102211.88;5061405;28;20071;-76
2023/05/02 05:48:18;;;;;;;6.95;1.50;;;;;;;9.50;75.97;102210.16;5060820;28;20653;-76
2023/05/02 05:50:44;;;;;;;3.10;1.17;;;;;;;9.51;76.36;102218.78;5058254;28;20029;-76
2023/05/02 05:53:09;;;;;;;5.63;1.30;;;;;;;9.52;76.26;102217.94;5056928;28;20020;-76
2023/05/02 05:55:36;;;;;;;2.97;1.20;;;;;;;9.51;75.79;102224.88;5057688;28;20028;-75
2023/05/02 05:58:02;;;;;;;5.15;1.50;;;;;;;9.51;75.71;102227.47;5053499;28;20017;-76
2023/05/02 06:00:27;;;;;;;6.25;1.65;;;;;;;9.54;76.79;102227.47;5053447;28;20060;-76
2023/05/02 06:02:53;;;;;;;3.75;1.10;;;;;;;9.59;76.03;102231.78;5052473;28;20057;-75
2023/05/02 06:05:18;;;;;;;2.90;1.25;;;;;;;9.60;75.75;102239.59;5056944;28;20025;-76
2023/05/02 06:07:43;;;;;;;4.25;1.35;;;;;;;9.61;75.27;102241.34;5056039;28;20462;-76
2023/05/02 06:10:09;;;;;;;1.83;1.00;;;;;;;9.62;75.43;102242.19;5059598;28;20048;-76
2023/05/02 06:12:35;;;;;;;4.30;1.45;;;;;;;9.65;74.43;102245.66;5071579;28;20529;-76
2023/05/02 06:15:00;;;;;;;4.55;1.30;;;;;;;9.60;75.19;102251.72;5066300;28;20109;-75
2023/05/02 06:17:26;;;;;;;5.15;1.40;;;;;;;9.55;74.57;102255.19;5052238;28;20025;-76
2023/05/02 06:19:51;;;;;;;4.35;1.30;;;;;;;9.49;74.80;102255.16;5051336;28;20049;-75
2023/05/02 06:22:16;;;;;;;4.05;1.40;;;;;;;9.49;75.30;102257.78;5051490;28;20083;-75
2023/05/02 06:24:42;;;;;;;7.93;1.17;;;;;;;9.50;75.22;102254.31;5051463;28;20112;-75
2023/05/02 06:27:07;;;;;;;4.38;1.30;;;;;;;9.55;75.32;102255.19;5051403;28;20737;-76
2023/05/02 06:29:32;;;;;;;4.68;1.48;;;;;;;9.60;75.14;102265.59;5052818;28;20035;-76
2023/05/02 06:31:57;;;;;;;2.97;1.25;;;;;;;9.66;74.38;102267.31;5058739;28;20379;-76
2023/05/02 06:34:23;;;;;;;4.22;1.40;;;;;;;9.67;75.13;102277.69;5055315;28;20021;-76
2023/05/02 06:36:52;;;;;;;7.30;1.80;;;;;;;9.72;74.69;102278.59;5051419;28;20021;-76
2023/05/02 06:39:17;;;;;;;4.78;1.52;;;;;;;9.70;74.62;102288.09;5052391;28;20079;-75
2023/05/02 06:41:43;;;;;;;5.07;1.25;;;;;;;9.68;74.68;102292.44;5051318;28;20021;-76
2023/05/02 06:44:08;;;;;;;6.15;1.45;;;;;;;9.67;74.91;102301.09;5051480;28;20385;-76
2023/05/02 06:46:33;;;;;;;5.15;1.90;;;;;;;9.65;75.03;102301.97;5051308;28;20033;-76
2023/05/02 06:48:59;;;;;;;4.45;1.52;;;;;;;9.65;74.60;102304.56;5051943;28;20071;-76
2023/05/02 06:51:24;;;;;;;3.83;1.70;;;;;;;9.62;74.93;102307.16;5068155;28;20139;-75
2023/05/02 06:53:50;;;;;;;6.47;1.70;;;;;;;9.65;75.12;102314.97;5057757;28;20099;-76
2023/05/02 06:56:15;;;;;;;5.18;1.60;;;;;;;9.62;74.12;102318.44;5055052;28;20050;-76
2023/05/02 06:58:40;;;;;;;4.75;1.42;;;;;;;9.63;73.92;102327.06;5062063;28;20473;-76
2023/05/02 07:01:06;;;;;;;4.85;1.90;;;;;;;9.65;72.38;102322.75;5054276;28;20031;-76
2023/05/02 07:03:31;;;;;;;3.08;1.58;;;;;;;9.68;73.45;102318.41;5052315;28;20040;-75
2023/05/02 07:05:57;;;;;;;4.43;1.55;;;;;;;9.75;72.63;102326.25;5051099;28;20086;-76
2023/05/02 07:08:22;;;;;;;3.13;1.30;;;;;;;9.79;71.88;102328.84;5050915;28;20035;-76
2023/05/02 07:10:49;;;;;;;4.60;1.38;;;;;;;9.80;69.33;102330.56;5052243;28;20117;-76
2023/05/02 07:13:14;;;;;;;6.90;1.40;;;;;;;9.86;68.15;102335.78;5054893;28;20028;-76
2023/05/02 07:15:39;;;;;;;5.28;1.63;;;;;;;9.85;69.23;102330.56;5054793;28;20029;-75
2023/05/02 07:18:05;;;;;;;5.47;1.70;;;;;;;9.96;68.15;102347.06;5056665;28;20040;-75
2023/05/02 07:20:31;;;;;;;6.38;1.80;;;;;;;10.10;70.52;102347.06;5054466;28;20038;-76
2023/05/02 07:22:56;;;;;;;5.10;1.58;;;;;;;10.19;67.61;102354.00;5065064;28;20192;-76
2023/05/02 07:25:21;;;;;;;6.00;1.70;;;;;;;10.24;67.38;102365.28;5059213;28;20460;-76
2023/05/02 07:27:47;;;;;;;5.47;1.60;;;;;;;10.28;67.85;102373.94;5057480;28;20039;-76
2023/05/02 07:30:12;;;;;;;7.97;1.92;;;;;;;10.30;66.29;102367.91;5056219;28;20025;-75
2023/05/02 07:32:37;;;;;;;7.63;1.73;;;;;;;10.30;66.73;102375.69;5062314;28;20017;-76
2023/05/02 07:35:02;;;;;;;6.13;1.75;;;;;;;10.36;67.51;102372.22;5058205;28;20078;-76
2023/05/02 07:37:34;;;;;;;7.65;1.90;;;;;;;10.36;65.80;102380.03;5056216;28;20039;-76
2023/05/02 07:39:59;;;;;;;6.03;1.70;;;;;;;10.36;65.11;102380.03;5067699;28;20432;-76
2023/05/02 07:42:29;;;;;;;8.75;2.00;;;;;;;10.35;65.88;102378.28;5056758;28;20067;-76
2023/05/02 07:44:54;;;;;;;4.80;1.70;;;;;;;10.35;67.18;102377.41;5059710;28;20032;-76
2023/05/02 07:47:20;;;;;;;6.20;1.70;;;;;;;10.38;67.28;102380.00;5067450;28;20103;-76
2023/05/02 07:49:50;;;;;;;7.78;1.77;;;;;;;10.41;66.60;102383.53;5060612;28;20089;-76
2023/05/02 07:52:15;;;;;;;4.65;1.73;;;;;;;10.47;66.88;102380.91;5061468;28;20050;-76
2023/05/02 07:54:41;;;;;;;8.60;2.63;;;;;;;10.55;67.33;102380.06;5057013;28;20489;-76
2023/05/02 07:57:07;;;;;;;6.82;2.22;;;;;;;10.63;66.10;102388.72;5057349;28;20040;-76
2023/05/02 07:59:33;;;;;;;6.13;1.80;;;;;;;10.67;65.64;102390.44;5054600;28;20041;-76
2023/05/02 08:01:58;;;;;;;6.18;2.10;;;;;;;10.67;65.67;102400.00;5060433;28;20105;-75
2023/05/02 08:04:24;;;;;;;5.78;2.05;;;;;;;10.69;64.23;102393.91;5062544;28;20040;-76
2023/05/02 08:06:49;;;;;;;7.88;2.10;;;;;;;10.71;67.50;102393.91;5053867;28;20029;-76
2023/05/02 08:09:15;;;;;;;5.30;1.50;;;;;;;10.76;65.05;102395.63;5060643;28;20039;-76
2023/05/02 08:11:40;;;;;;;5.57;1.60;;;;;;;10.84;65.22;102402.56;5060050;28;20036;-76
2023/05/02 08:14:06;;;;;;;7.70;1.70;;;;;;;10.92;64.41;102406.03;5060414;28;20432;-76
2023/05/02 08:16:31;;;;;;;5.93;1.70;;;;;;;11.00;63.61;102409.47;5061126;28;20120;-76
2023/05/02 08:18:56;;;;;;;6.38;2.30;;;;;;;11.06;63.21;102409.47;5058807;28;20028;-76
2023/05/02 08:21:22;;;;;;;7.40;1.70;;;;;;;11.07;64.32;102407.72;5056993;28;20157;-76
2023/05/02 08:23:47;;;;;;;8.27;1.58;;;;;;;11.13;63.96;102415.53;5059700;28;20054;-76
2023/05/02 08:26:12;;;;;;;4.28;1.60;;;;;;;11.17;63.25;102419.88;5059392;28;20039;-76
2023/05/02 08:28:37;;;;;;;4.57;1.40;;;;;;;11.24;63.15;102424.16;5060623;28;20185;-76
2023/05/02 08:31:03;;;;;;;5.05;1.60;;;;;;;11.30;62.66;102418.06;5058726;28;20025;-76
2023/05/02 08:33:28;;;;;;;6.10;1.70;;;;;;;11.35;62.02;102418.09;5055703;28;20017;-76
2023/05/02 08:35:53;;;;;;;6.47;1.98;;;;;;;11.34;61.95;102425.00;5063505;28;20111;-76
2023/05/02 08:38:18;;;;;;;5.28;1.50;;;;;;;11.35;60.54;102436.31;5060503;28;20029;-76
2023/05/02 08:40:44;;;;;;;5.18;1.45;;;;;;;11.37;59.70;102430.22;5064149;28;20477;-76
2023/05/02 08:43:11;;;;;;;4.53;1.38;;;;;;;11.40;57.44;102442.34;5058664;28;20032;-75
2023/05/02 08:45:42;;;;;;;4.45;1.40;;;;;;;11.43;58.25;102433.69;5061360;28;20037;-75
2023/05/02 08:48:09;;;;;;;5.22;1.35;;;;;;;11.44;58.40;102435.41;5059765;28;20494;-76
2023/05/02 08:50:40;;;;;;;4.53;1.30;;;;;;;11.46;59.24;102436.25;5060566;28;20028;-75
2023/05/02 08:53:07;;;;;;;2.60;1.10;;;;;;;11.51;57.07;102442.31;5058205;28;20538;-76
2023/05/02 08:55:38;;;;;;;3.22;1.10;;;;;;;11.54;57.62;102447.53;5057098;28;20043;-76
2023/05/02 08:58:05;;;;;;;3.55;1.13;;;;;;;11.57;56.17;102451.84;5060573;28;20036;-76
2023/05/02 09:00:32;;;;;;;4.25;1.30;;;;;;;11.57;54.56;102450.13;5062764;28;20024;-76
2023/05/02 09:03:30;;;;;;;5.72;1.17;;;;;;;11.65;56.80;102453.56;5059045;28;20375;-76
2023/05/02 09:06:09;;;;;;;5.43;1.00;;;;;;;11.78;53.52;102456.13;5051584;28;20056;-76
2023/05/02 09:08:35;;;;;;;4.00;1.20;;;;;;;11.88;52.36;102451.72;5053526;28;20489;-76
2023/05/02 09:11:05;;;;;;;4.18;1.23;;;;;;;11.91;53.04;102457.81;5053524;28;20087;-76
2023/05/02 09:13:34;;;;;;;5.97;1.33;;;;;;;11.93;52.92;102461.25;5051914;28;20025;-76
2023/05/02 09:16:06;;;;;;;3.20;1.27;;;;;;;11.97;55.11;102468.19;5069705;28;20350;-76
2023/05/02 09:18:34;;;;;;;4.82;1.60;;;;;;;12.03;53.53;102471.66;5065791;28;20739;-76
2023/05/02 09:21:02;;;;;;;4.82;1.50;;;;;;;12.10;53.35;102473.38;5066908;28;20024;-76
2023/05/02 09:23:35;;;;;;;4.38;1.60;;;;;;;12.16;56.00;102475.09;5052788;28;20032;-75
2023/05/02 09:26:00;;;;;;;6.13;1.80;;;;;;;12.11;56.22;102480.34;5051893;28;20033;-76
2023/05/02 09:28:50;;;;;;;6.68;1.83;;;;;;;12.03;56.89;102487.31;5051359;28;20088;-76
2023/05/02 09:31:17;;;;;;;6.10;1.70;;;;;;;11.99;58.40;102489.94;5070815;28;20028;-76
2023/05/02 09:33:44;;;;;;;8.77;2.00;;;;;;;12.06;57.11;102495.97;5070836;28;20032;-76
2023/05/02 09:36:14;;;;;;;5.68;1.55;;;;;;;12.11;58.63;102496.00;5072193;28;20028;-76
2023/05/02 09:38:41;;;;;;;6.82;1.80;;;;;;;12.20;57.59;102498.53;5064396;28;20028;-76
2023/05/02 09:41:06;;;;;;;8.52;2.15;;;;;;;12.24;56.71;102495.03;5051859;28;20492;-76
2023/05/02 09:43:32;;;;;;;4.43;1.58;;;;;;;12.36;57.79;102501.94;5053595;28;20032;-76
2023/05/02 09:46:05;;;;;;;4.68;1.60;;;;;;;12.51;57.53;102497.47;5058964;28;20021;-76
2023/05/02 09:48:33;;;;;;;5.93;1.48;;;;;;;12.57;56.54;102500.91;5062238;28;20024;-76
2023/05/02 09:50:58;;;;;;;5.10;2.05;;;;;;;12.59;56.28;102499.16;5055340;28;20017;-76
2023/05/02 09:53:26;;;;;;;4.03;1.30;;;;;;;12.69;58.26;102504.28;5056876;28;20040;-76
2023/05/02 09:56:04;;;;;;;3.47;1.58;;;;;;;12.73;57.86;102506.84;5059577;28;20024;-75
2023/05/02 09:58:29;;;;;;;5.68;1.67;;;;;;;12.79;54.61;102503.34;5054892;28;20054;-76
2023/05/02 10:00:56;;;;;;;4.88;1.40;;;;;;;12.69;56.09;102517.34;5061724;28;20028;-76
2023/05/02 10:03:23;;;;;;;3.63;1.70;;;;;;;12.64;53.40;102516.53;5058209;28;20023;-76
2023/05/02 10:05:49;;;;;;;5.43;1.60;;;;;;;12.66;52.93;102509.53;5067144;28;20039;-76
2023/05/02 10:08:17;;;;;;;6.05;1.77;;;;;;;12.70;53.68;102516.47;5063808;28;20381;-76
2023/05/02 10:10:49;;;;;;;4.30;1.73;;;;;;;12.72;53.69;102518.19;5054722;28;20120;-76
2023/05/02 10:13:16;;;;;;;;;;;;;;;12.74;55.47;102521.66;5052078;28;20036;-76
2023/05/02 10:15:43;;;;;;;3.60;1.30;;;;;;;12.64;52.79;102527.81;5059462;28;19929;-76
2023/05/02 10:18:14;;;;;;;6.07;1.58;;;;;;;12.64;53.76;102529.59;5063077;28;20465;-76
2023/05/02 10:20:48;;;;;;;5.60;1.65;;;;;;;12.69;51.37;102531.28;5058364;28;20386;-76
2023/05/02 10:23:14;;;;;;;6.35;1.70;;;;;;;12.69;53.04;102525.19;5061454;28;20040;-76
2023/05/02 10:25:40;;;;;;;3.70;1.30;;;;;;;12.67;51.83;102526.94;5058740;28;20024;-76
2023/05/02 10:28:06;;;;;;;3.45;1.40;;;;;;;12.63;51.75;102530.47;5063252;28;20116;-76
2023/05/02 10:30:32;;;;;;;4.88;1.73;;;;;;;12.55;52.06;102526.16;5059782;28;20078;-76
2023/05/02 10:32:59;;;;;;;4.68;1.60;;;;;;;12.54;51.82;102532.25;5056920;28;20500;-78
2023/05/02 10:35:25;;;;;;;5.22;1.70;;;;;;;12.65;50.46;102531.28;5058219;28;20031;-76
2023/05/02 10:37:51;;;;;;;5.20;1.38;;;;;;;12.75;49.06;102522.53;5054614;28;20020;-76
2023/05/02 10:40:17;;;;;;;3.47;1.40;;;;;;;12.82;48.33;102524.19;5054982;28;22294;-76
2023/05/02 10:42:46;;;;;;;3.78;1.30;;;;;;;12.90;48.73;102524.13;5058724;28;20029;-76
2023/05/02 10:45:34;;;;;;;4.88;1.58;;;;;;;12.94;51.28;102528.47;5057031;28;20021;-76
2023/05/02 10:48:20;;;;;;;5.72;1.35;;;;;;;12.90;52.36;102530.25;5062269;28;20013;-76
2023/05/02 10:50:56;;;;;;;5.32;1.70;;;;;;;12.86;50.46;102532.91;5075064;28;20476;-76
2023/05/02 10:53:29;;;;;;;4.93;1.70;;;;;;;12.70;49.75;102542.56;5057287;28;20546;-76
2023/05/02 10:56:20;;;;;;;3.03;1.50;;;;;;;12.51;51.80;102540.09;5059569;28;20492;-76
2023/05/02 10:58:48;;;;;;;5.57;1.50;;;;;;;12.40;50.69;102534.09;5063425;28;20025;-76
2023/05/02 11:01:29;;;;;;;5.70;1.48;;;;;;;12.38;51.63;102533.22;5073975;28;20275;-76
2023/05/02 11:04:05;;;;;;;4.72;1.40;;;;;;;12.42;52.16;102529.72;5061690;28;20115;-77
2023/05/02 11:06:35;;;;;;;5.78;1.48;;;;;;;12.40;50.03;102534.94;5064515;28;20025;-76
2023/05/02 11:09:13;;;;;;;4.30;1.75;;;;;;;12.34;50.67;102535.00;5061474;28;20047;-76
2023/05/02 11:11:40;;;;;;;5.55;1.60;;;;;;;12.33;49.04;102543.69;5060797;28;20033;-76
2023/05/02 11:14:06;;;;;;;3.90;1.50;;;;;;;12.38;50.69;102541.06;5059317;28;20556;-76
2023/05/02 11:16:56;;;;;;;4.53;1.65;;;;;;;12.44;51.89;102546.25;5072164;28;20115;-76
2023/05/02 11:19:21;;;;;;;8.65;1.85;;;;;;;12.36;46.55;102548.03;5056841;28;20378;-76
2023/05/02 11:21:46;;;;;;;3.13;1.50;;;;;;;12.27;48.84;102548.94;5064537;28;20028;-76
2023/05/02 11:24:48;;;;;;;5.35;1.60;;;;;;;12.28;49.04;102542.84;5058240;28;20389;-76
2023/05/02 11:27:28;;;;;;;4.45;1.60;;;;;;;12.38;49.38;102548.88;5004494;28;20032;-76